Dona Euzebia, Brazil
Current Conditions -  °F | °C
As of 11:00 AM on Sunday 23 Nov 2014 (Local Time) from SBJF Reporting Station
Broken Clouds Broken Clouds  
Wind Chill: 79°   Ceiling: 1500
Heat Index: 81°   Visibility: 6mi
Dew Point: 66°   Wind: 2mph
Humidity: 65%   Direction: 310°NW
Pressure: 30.03"   Gusts: NA
Location:  21.32°S, 42.81°W
Report Text: SBJF 231300Z 31002KT 9999 SCT010 BKN015 BKN080 26/19 Q1017
Loading
Personal Weather Stations






























Interactive Weather Map New forecast layout! Learn more

10-Day Weather Forecast

Advertisements
Track Severe Weather on mobile